Time;durP1;ratioP1;P1;durP2;ratioP2;P2;SDS_P1;SDS_P2;PMS_P1;PMS_P2;Temp;Humidity;BMP_temperature;BMP_pressure;BME280_temperature;BME280_humidity;BME280_pressure;Samples;Min_cycle;Max_cycle;Signal;HPM_P1;HPM_P2
2023/01/05 00:01:01;;;;;;;47.92;20.33;;;;;;;;;;10443497;28;20501;-75
2023/01/05 00:06:03;;;;;;;47.92;19.42;;;;;;;;;;10442802;28;20021;-76
2023/01/05 00:27:02;;;;;;;43.90;20.58;;;;;;;;;;10443632;28;20029;-77
2023/01/05 00:32:03;;;;;;;49.25;22.98;;;;;;;;;;10482590;28;20025;-73
2023/01/05 00:37:03;;;;;;;42.33;21.02;;;;;;;;;;10479476;28;20029;-72
2023/01/05 00:42:03;;;;;;;44.50;19.88;;;;;;;;;;10478592;28;20097;-74
2023/01/05 00:47:04;;;;;;;48.38;20.90;;;;;;;;;;10450592;28;20036;-77
2023/01/05 00:52:04;;;;;;;43.40;17.63;;;;;;;;;;10483871;28;20032;-76
2023/01/05 00:57:06;;;;;;;45.33;19.35;;;;;;;;;;10465815;28;20728;-79
2023/01/05 01:02:06;;;;;;;39.88;18.95;;;;;;;;;;10466219;28;20157;-76
2023/01/05 01:07:06;;;;;;;46.03;21.33;;;;;;;;;;10464928;28;20139;-72
2023/01/05 01:12:07;;;;;;;42.88;19.30;;;;;;;;;;10465198;28;20093;-79
2023/01/05 01:17:07;;;;;;;38.73;17.80;;;;;;;;;;10483125;28;20216;-72
2023/01/05 01:22:07;;;;;;;44.00;18.85;;;;;;;;;;10464794;28;20363;-77
2023/01/05 01:27:07;;;;;;;31.50;16.98;;;;;;;;;;10464896;28;20021;-76
2023/01/05 01:32:08;;;;;;;47.80;19.10;;;;;;;;;;10464957;28;20028;-73
2023/01/05 01:37:08;;;;;;;38.47;17.40;;;;;;;;;;10484330;28;20025;-75
2023/01/05 01:42:13;;;;;;;40.03;17.70;;;;;;;;;;10472534;28;20028;-76
2023/01/05 01:47:15;;;;;;;41.03;18.73;;;;;;;;;;10470697;28;20020;-76
2023/01/05 01:52:16;;;;;;;37.55;17.50;;;;;;;;;;10447553;28;20040;-73
2023/01/05 01:57:16;;;;;;;40.03;18.80;;;;;;;;;;10476911;28;20033;-75
2023/01/05 02:02:17;;;;;;;38.67;16.35;;;;;;;;;;10473044;28;20029;-76
2023/01/05 02:07:17;;;;;;;35.42;16.83;;;;;;;;;;10472530;28;20229;-77
2023/01/05 02:12:24;;;;;;;37.47;15.98;;;;;;;;;;10488684;28;20025;-77
2023/01/05 02:17:47;;;;;;;46.15;19.05;;;;;;;;;;10471712;28;20025;-72
2023/01/05 02:22:59;;;;;;;41.70;19.05;;;;;;;;;;10469437;28;20359;-78
2023/01/05 02:27:59;;;;;;;50.78;22.35;;;;;;;;;;10471077;28;20064;-76
2023/01/05 02:33:12;;;;;;;55.10;22.77;;;;;;;;;;10471156;28;20111;-73
2023/01/05 02:38:12;;;;;;;54.53;22.98;;;;;;;;;;10470974;28;20033;-77
2023/01/05 02:43:14;;;;;;;49.37;23.73;;;;;;;;;;10470987;28;20020;-75
2023/01/05 02:48:14;;;;;;;58.63;25.50;;;;;;;;;;10470531;28;20021;-77
2023/01/05 02:53:14;;;;;;;56.63;23.25;;;;;;;;;;10470095;28;20028;-72
2023/01/05 02:58:21;;;;;;;53.33;22.60;;;;;;;;;;10470249;28;20024;-76
2023/01/05 03:03:34;;;;;;;49.85;22.85;;;;;;;;;;10469957;28;20057;-77
2023/01/05 03:08:37;;;;;;;54.05;22.85;;;;;;;;;;10469032;28;20025;-75
2023/01/05 03:13:41;;;;;;;45.55;20.30;;;;;;;;;;10450653;28;20101;-72
2023/01/05 03:40:05;;;;;;;44.13;19.45;;;;;;;;;;10486163;28;20056;-72
2023/01/05 03:45:06;;;;;;;47.97;21.23;;;;;;;;;;10427408;28;20037;-73
2023/01/05 03:50:07;;;;;;;45.72;22.67;;;;;;;;;;10445655;28;20709;-77
2023/01/05 03:55:09;;;;;;;48.55;22.08;;;;;;;;;;10485692;28;20024;-76
2023/01/05 04:00:09;;;;;;;51.47;21.95;;;;;;;;;;10467160;28;20031;-77
2023/01/05 04:05:10;;;;;;;55.58;24.05;;;;;;;;;;10460961;28;20348;-77
2023/01/05 04:10:10;;;;;;;50.80;22.37;;;;;;;;;;10426577;28;20021;-71
2023/01/05 04:15:10;;;;;;;53.67;23.80;;;;;;;;;;10471509;28;20038;-71
2023/01/05 04:20:11;;;;;;;55.33;26.87;;;;;;;;;;10445463;28;20451;-75
2023/01/05 04:25:11;;;;;;;55.13;24.73;;;;;;;;;;10442065;28;20057;-74
2023/01/05 04:30:11;;;;;;;55.97;26.67;;;;;;;;;;10441687;28;20017;-72
2023/01/05 04:35:12;;;;;;;60.75;26.23;;;;;;;;;;10441697;28;20027;-78
2023/01/05 04:40:12;;;;;;;52.58;25.25;;;;;;;;;;10441381;28;20032;-72
2023/01/05 04:45:12;;;;;;;53.10;26.63;;;;;;;;;;10440307;28;20112;-71
2023/01/05 04:50:12;;;;;;;67.40;27.50;;;;;;;;;;10439545;28;20025;-73
2023/01/05 04:55:13;;;;;;;53.25;25.55;;;;;;;;;;10429223;28;20039;-76
2023/01/05 05:00:13;;;;;;;51.80;24.10;;;;;;;;;;10424328;28;20018;-76
2023/01/05 05:05:13;;;;;;;51.83;22.43;;;;;;;;;;10407652;28;20012;-78
2023/01/05 05:10:16;;;;;;;55.07;24.13;;;;;;;;;;10401781;28;20661;-73
2023/01/05 05:15:17;;;;;;;51.92;24.58;;;;;;;;;;10419347;28;20028;-77
2023/01/05 05:20:17;;;;;;;49.60;22.45;;;;;;;;;;10440130;28;20422;-73
2023/01/05 05:25:17;;;;;;;52.47;22.52;;;;;;;;;;10474805;28;20045;-71
2023/01/05 05:30:18;;;;;;;55.70;21.38;;;;;;;;;;10463962;28;20469;-73
2023/01/05 05:35:18;;;;;;;45.97;20.45;;;;;;;;;;10465094;28;20021;-72
2023/01/05 05:40:18;;;;;;;38.03;18.93;;;;;;;;;;10464121;28;20059;-75
2023/01/05 05:45:19;;;;;;;40.90;17.77;;;;;;;;;;10486147;28;20032;-76
2023/01/05 05:50:19;;;;;;;42.93;20.37;;;;;;;;;;10472939;28;20103;-73
2023/01/05 05:55:19;;;;;;;45.30;20.20;;;;;;;;;;10462981;28;20021;-77
2023/01/05 06:00:19;;;;;;;44.45;20.98;;;;;;;;;;10459719;28;20161;-74
2023/01/05 06:05:20;;;;;;;47.85;21.20;;;;;;;;;;10459776;28;20017;-77
2023/01/05 06:10:20;;;;;;;60.00;25.90;;;;;;;;;;10480304;28;20021;-75
2023/01/05 06:15:21;;;;;;;67.47;27.00;;;;;;;;;;10476417;28;20024;-73
2023/01/05 06:20:22;;;;;;;69.00;28.77;;;;;;;;;;10462583;28;20028;-74
2023/01/05 06:25:22;;;;;;;60.80;28.43;;;;;;;;;;10467575;28;20426;-75
2023/01/05 06:30:22;;;;;;;70.10;29.58;;;;;;;;;;10488714;28;20494;-76
2023/01/05 06:35:22;;;;;;;67.70;28.95;;;;;;;;;;10470505;28;20140;-77
2023/01/05 06:40:23;;;;;;;58.07;25.63;;;;;;;;;;10469844;28;20028;-78
2023/01/05 06:45:23;;;;;;;57.47;26.70;;;;;;;;;;10487746;28;20068;-77
2023/01/05 06:50:23;;;;;;;59.08;25.73;;;;;;;;;;10470343;28;20553;-76
2023/01/05 06:55:23;;;;;;;60.78;26.98;;;;;;;;;;10469103;28;20515;-75
2023/01/05 07:00:24;;;;;;;61.00;26.53;;;;;;;;;;10469633;28;20496;-75
2023/01/05 07:05:24;;;;;;;62.53;24.60;;;;;;;;;;10453174;28;20110;-76
2023/01/05 07:10:24;;;;;;;57.17;23.90;;;;;;;;;;10452545;28;20016;-76
2023/01/05 07:15:24;;;;;;;63.42;25.13;;;;;;;;;;10469301;28;20025;-77
2023/01/05 07:20:25;;;;;;;49.72;23.13;;;;;;;;;;10469862;28;20036;-77
2023/01/05 07:25:30;;;;;;;53.95;24.45;;;;;;;;;;10468279;28;20056;-76
2023/01/05 07:30:30;;;;;;;68.25;25.25;;;;;;;;;;10467241;28;20435;-81
2023/01/05 07:35:31;;;;;;;54.70;25.55;;;;;;;;;;10467253;28;20420;-76
2023/01/05 07:40:31;;;;;;;51.92;24.42;;;;;;;;;;10467821;28;20021;-76
2023/01/05 07:45:31;;;;;;;48.35;22.52;;;;;;;;;;10467389;28;20059;-76
2023/01/05 07:50:32;;;;;;;48.60;21.42;;;;;;;;;;10467488;28;20020;-77
2023/01/05 07:55:32;;;;;;;48.00;19.30;;;;;;;;;;10467491;28;20033;-76
2023/01/05 08:00:32;;;;;;;45.97;21.13;;;;;;;;;;10484909;28;20029;-75
2023/01/05 08:05:34;;;;;;;52.67;21.08;;;;;;;;;;10467204;28;20027;-75
2023/01/05 08:10:36;;;;;;;61.30;23.77;;;;;;;;;;10466411;28;20492;-76
2023/01/05 08:15:37;;;;;;;52.50;25.02;;;;;;;;;;10466736;28;20071;-79
2023/01/05 08:20:37;;;;;;;53.45;23.80;;;;;;;;;;10466901;28;20115;-78
2023/01/05 08:25:37;;;;;;;53.22;26.08;;;;;;;;;;10441486;28;20045;-74
2023/01/05 08:30:37;;;;;;;56.47;24.85;;;;;;;;;;10404656;28;20440;-74
2023/01/05 08:35:39;;;;;;;56.78;24.85;;;;;;;;;;10426340;28;20461;-79
2023/01/05 08:40:39;;;;;;;44.50;22.75;;;;;;;;;;10440601;28;20504;-74
2023/01/05 08:45:40;;;;;;;47.95;23.50;;;;;;;;;;10440462;28;20047;-75
2023/01/05 08:50:40;;;;;;;46.83;21.52;;;;;;;;;;10441130;28;20059;-79
2023/01/05 08:55:40;;;;;;;52.92;21.02;;;;;;;;;;10440723;28;20538;-79
2023/01/05 09:00:41;;;;;;;44.58;21.73;;;;;;;;;;10439918;28;20526;-72
2023/01/05 09:05:41;;;;;;;43.80;19.98;;;;;;;;;;10441240;28;20029;-75
2023/01/05 09:10:41;;;;;;;50.67;23.17;;;;;;;;;;10444430;28;20024;-79
2023/01/05 09:15:41;;;;;;;36.75;20.67;;;;;;;;;;10444012;28;20470;-72
2023/01/05 09:20:42;;;;;;;46.03;21.70;;;;;;;;;;10440115;28;20478;-77
2023/01/05 09:25:42;;;;;;;35.78;18.33;;;;;;;;;;10440100;28;20499;-80
2023/01/05 09:30:42;;;;;;;43.70;19.10;;;;;;;;;;10439336;28;20035;-75
2023/01/05 09:35:42;;;;;;;39.55;20.80;;;;;;;;;;10439255;28;20025;-77
2023/01/05 09:40:43;;;;;;;37.33;18.92;;;;;;;;;;10439616;28;20020;-77
2023/01/05 09:45:43;;;;;;;32.03;19.05;;;;;;;;;;10439989;28;20032;-76
2023/01/05 09:50:45;;;;;;;34.00;16.15;;;;;;;;;;10440248;28;20009;-75
2023/01/05 09:55:47;;;;;;;39.20;18.27;;;;;;;;;;10440716;28;20072;-72
2023/01/05 10:00:52;;;;;;;31.05;16.55;;;;;;;;;;10445861;28;20079;-73
2023/01/05 10:05:52;;;;;;;32.35;15.10;;;;;;;;;;10447213;28;20171;-73
2023/01/05 10:16:27;;;;;;;31.23;15.18;;;;;;;;;;10449093;28;20017;-77
2023/01/05 10:21:41;;;;;;;34.90;14.80;;;;;;;;;;10449074;28;20112;-77
2023/01/05 10:27:04;;;;;;;30.45;14.98;;;;;;;;;;10472516;28;20540;-74
2023/01/05 10:32:14;;;;;;;29.38;15.32;;;;;;;;;;10421313;28;20024;-78
2023/01/05 10:37:20;;;;;;;30.60;15.95;;;;;;;;;;10430269;28;20033;-73
2023/01/05 10:42:30;;;;;;;28.13;13.95;;;;;;;;;;10470821;28;20056;-76
2023/01/05 10:47:34;;;;;;;30.75;13.77;;;;;;;;;;10470058;28;20017;-78
2023/01/05 10:52:34;;;;;;;32.63;13.40;;;;;;;;;;10470125;28;20172;-78
2023/01/05 10:57:36;;;;;;;24.38;13.30;;;;;;;;;;10464430;28;20017;-76
2023/01/05 11:02:38;;;;;;;25.92;14.25;;;;;;;;;;10428396;28;20048;-77
2023/01/05 11:08:05;;;;;;;26.73;16.17;;;;;;;;;;10469814;28;20386;-75
2023/01/05 11:13:16;;;;;;;32.75;15.63;;;;;;;;;;10464823;28;20040;-78
2023/01/05 11:18:29;;;;;;;30.52;16.15;;;;;;;;;;10468656;28;20023;-77
2023/01/05 11:23:50;;;;;;;34.88;15.48;;;;;;;;;;10467737;28;20052;-77
2023/01/05 11:28:56;;;;;;;33.40;15.68;;;;;;;;;;10443592;28;20032;-76
2023/01/05 11:33:57;;;;;;;30.63;14.18;;;;;;;;;;10477917;28;20561;-73
2023/01/05 11:38:58;;;;;;;29.40;15.80;;;;;;;;;;10468722;28;20082;-77
2023/01/05 11:44:02;;;;;;;26.83;15.35;;;;;;;;;;10486243;28;20020;-77
2023/01/05 11:49:02;;;;;;;35.60;14.60;;;;;;;;;;10467767;28;20043;-74
2023/01/05 11:54:03;;;;;;;27.05;14.43;;;;;;;;;;10467683;28;20020;-74
2023/01/05 11:59:03;;;;;;;32.58;15.60;;;;;;;;;;10467267;28;20779;-76
2023/01/05 12:04:22;;;;;;;38.53;17.08;;;;;;;;;;10466486;28;20131;-73
2023/01/05 12:09:22;;;;;;;32.75;15.00;;;;;;;;;;10466669;28;20032;-73
2023/01/05 12:14:29;;;;;;;28.73;15.68;;;;;;;;;;10466549;28;20024;-73
2023/01/05 12:19:47;;;;;;;41.15;16.67;;;;;;;;;;10490982;28;20039;-71
2023/01/05 12:24:48;;;;;;;33.28;16.83;;;;;;;;;;10483422;28;20131;-73
2023/01/05 12:29:48;;;;;;;35.90;17.02;;;;;;;;;;10466613;28;20028;-76
2023/01/05 12:35:06;;;;;;;33.95;17.02;;;;;;;;;;10465919;28;20501;-77
2023/01/05 12:40:07;;;;;;;;;;;;;;;;;;10465841;28;20289;-75
2023/01/05 12:45:07;;;;;;;39.75;18.15;;;;;;;;;;10465189;28;19982;-76
2023/01/05 12:50:14;;;;;;;33.47;16.43;;;;;;;;;;10465673;28;20027;-75
2023/01/05 12:55:22;;;;;;;30.13;15.52;;;;;;;;;;10465004;28;20025;-74
2023/01/05 13:00:25;;;;;;;30.65;14.90;;;;;;;;;;10465127;28;20055;-76
2023/01/05 13:05:52;;;;;;;39.58;14.75;;;;;;;;;;10440624;28;20048;-78
2023/01/05 13:11:00;;;;;;;32.45;15.43;;;;;;;;;;10482843;28;20553;-72
2023/01/05 13:16:19;;;;;;;29.63;14.25;;;;;;;;;;10516901;28;20029;-75
2023/01/05 13:21:20;;;;;;;33.08;15.75;;;;;;;;;;10464249;28;20570;-75
2023/01/05 13:26:23;;;;;;;50.30;18.85;;;;;;;;;;10464803;28;20024;-77
2023/01/05 13:31:42;;;;;;;29.83;12.25;;;;;;;;;;10464588;28;20036;-75
2023/01/05 13:37:03;;;;;;;27.88;12.27;;;;;;;;;;10459254;28;20024;-74
2023/01/05 13:42:29;;;;;;;24.63;10.80;;;;;;;;;;10472599;28;20116;-77
2023/01/05 13:47:42;;;;;;;36.17;11.88;;;;;;;;;;10459753;28;20043;-72
2023/01/05 13:52:55;;;;;;;25.23;12.18;;;;;;;;;;10472202;28;20024;-73
2023/01/05 13:57:56;;;;;;;29.75;11.30;;;;;;;;;;10473452;28;20403;-77
2023/01/05 14:03:06;;;;;;;28.67;12.67;;;;;;;;;;10472113;28;20062;-73
2023/01/05 14:08:13;;;;;;;25.25;13.00;;;;;;;;;;10460253;28;20013;-77
2023/01/05 14:13:32;;;;;;;27.73;11.23;;;;;;;;;;10436140;28;20024;-71
2023/01/05 14:18:49;;;;;;;24.20;10.73;;;;;;;;;;10488806;28;20491;-74
2023/01/05 14:23:55;;;;;;;34.33;14.85;;;;;;;;;;10489959;28;20044;-73
2023/01/05 14:28:55;;;;;;;27.50;12.73;;;;;;;;;;10488593;28;20631;-72
2023/01/05 14:33:56;;;;;;;32.30;13.57;;;;;;;;;;10470144;28;20024;-74
2023/01/05 14:38:57;;;;;;;39.60;15.48;;;;;;;;;;10471037;28;20565;-78
2023/01/05 14:44:01;;;;;;;27.45;12.90;;;;;;;;;;10469655;28;20021;-74
2023/01/05 14:49:06;;;;;;;33.50;14.25;;;;;;;;;;10469860;28;20482;-72
2023/01/05 14:54:09;;;;;;;41.13;15.73;;;;;;;;;;10466314;28;20016;-73
2023/01/05 14:59:24;;;;;;;32.58;14.40;;;;;;;;;;10464621;28;20105;-75
2023/01/05 15:04:24;;;;;;;32.95;14.07;;;;;;;;;;10473443;28;20510;-72
2023/01/05 15:09:44;;;;;;;34.38;15.05;;;;;;;;;;10465288;28;20028;-76
2023/01/05 15:14:44;;;;;;;33.83;15.45;;;;;;;;;;10481639;28;20020;-74
2023/01/05 15:19:55;;;;;;;25.63;13.25;;;;;;;;;;10465647;28;20082;-76
2023/01/05 15:25:19;;;;;;;48.03;17.42;;;;;;;;;;10465912;28;20037;-77
2023/01/05 15:30:19;;;;;;;35.60;14.18;;;;;;;;;;10450533;28;20039;-76
2023/01/05 15:35:20;;;;;;;30.17;13.93;;;;;;;;;;10466447;28;20027;-76
2023/01/05 15:40:21;;;;;;;37.17;15.30;;;;;;;;;;10473203;28;20024;-73
2023/01/05 15:45:22;;;;;;;39.70;16.65;;;;;;;;;;10483660;28;20043;-74
2023/01/05 15:50:30;;;;;;;49.63;19.52;;;;;;;;;;10465823;28;20023;-78
2023/01/05 15:55:30;;;;;;;44.00;18.53;;;;;;;;;;10480512;28;20515;-71
2023/01/05 16:00:32;;;;;;;38.40;16.87;;;;;;;;;;10482693;28;20027;-78
2023/01/05 16:05:34;;;;;;;42.03;18.95;;;;;;;;;;10464620;28;20645;-72
2023/01/05 16:10:36;;;;;;;40.63;16.85;;;;;;;;;;10464024;28;20036;-75
2023/01/05 16:15:37;;;;;;;37.25;15.60;;;;;;;;;;10462000;28;20032;-80
2023/01/05 16:20:39;;;;;;;36.72;15.93;;;;;;;;;;10465059;28;20028;-75
2023/01/05 16:25:48;;;;;;;52.25;16.52;;;;;;;;;;10439590;28;20048;-77
2023/01/05 16:30:49;;;;;;;40.50;17.35;;;;;;;;;;10445663;28;20100;-73
2023/01/05 16:35:51;;;;;;;45.05;15.57;;;;;;;;;;10441273;28;20021;-76
2023/01/05 16:41:01;;;;;;;38.15;16.90;;;;;;;;;;10438820;28;20116;-78
2023/01/05 16:46:13;;;;;;;38.47;16.85;;;;;;;;;;10439065;28;20117;-79
2023/01/05 16:51:15;;;;;;;49.40;18.80;;;;;;;;;;10441836;28;20447;-74
2023/01/05 16:56:41;;;;;;;47.13;18.15;;;;;;;;;;10421390;28;20073;-79
2023/01/05 17:01:43;;;;;;;49.47;18.48;;;;;;;;;;10439608;28;20029;-81
2023/01/05 17:06:44;;;;;;;51.78;19.75;;;;;;;;;;10442557;28;20039;-76
2023/01/05 17:11:44;;;;;;;56.92;20.70;;;;;;;;;;10433922;28;20491;-77
2023/01/05 17:16:45;;;;;;;46.17;20.15;;;;;;;;;;10431507;28;20041;-77
2023/01/05 17:21:48;;;;;;;44.27;20.10;;;;;;;;;;10438405;28;20121;-77
2023/01/05 17:26:48;;;;;;;45.97;21.05;;;;;;;;;;10475669;28;20298;-78
2023/01/05 17:31:49;;;;;;;50.57;21.10;;;;;;;;;;10460576;28;20035;-75
2023/01/05 17:36:52;;;;;;;46.47;18.40;;;;;;;;;;10465288;28;20090;-75
2023/01/05 17:42:40;;;;;;;47.20;20.35;;;;;;;;;;10444593;28;20557;-78
2023/01/05 17:47:12;;;;;;;51.25;22.05;;;;;;;;;;10478681;28;20017;-73
2023/01/05 17:52:13;;;;;;;54.17;21.70;;;;;;;;;;10457319;28;20032;-72
2023/01/05 17:57:13;;;;;;;61.70;22.00;;;;;;;;;;10460419;28;20055;-75
2023/01/05 18:02:14;;;;;;;57.77;20.20;;;;;;;;;;10458471;28;20453;-76
2023/01/05 18:07:14;;;;;;;59.78;20.50;;;;;;;;;;10459952;28;20020;-77
2023/01/05 18:12:15;;;;;;;54.13;19.88;;;;;;;;;;10457791;28;20024;-77
2023/01/05 18:17:15;;;;;;;57.28;20.45;;;;;;;;;;10459124;28;20148;-76
2023/01/05 18:22:15;;;;;;;59.47;22.90;;;;;;;;;;10464964;28;20098;-77
2023/01/05 18:27:16;;;;;;;63.55;23.00;;;;;;;;;;10464242;28;20036;-76
2023/01/05 18:32:16;;;;;;;49.35;19.60;;;;;;;;;;10467107;28;20026;-78
2023/01/05 18:37:17;;;;;;;37.95;16.63;;;;;;;;;;10465128;28;20115;-76
2023/01/05 18:42:17;;;;;;;42.72;18.58;;;;;;;;;;10467778;28;20063;-73
2023/01/05 18:47:17;;;;;;;47.13;19.30;;;;;;;;;;10474279;28;20069;-75
2023/01/05 18:52:17;;;;;;;50.23;20.17;;;;;;;;;;10469090;28;20020;-76
2023/01/05 18:57:18;;;;;;;61.17;22.73;;;;;;;;;;10468216;28;20783;-74
2023/01/05 19:02:19;;;;;;;61.85;22.20;;;;;;;;;;10465890;28;20068;-73
2023/01/05 19:07:19;;;;;;;45.10;19.70;;;;;;;;;;10467370;28;20089;-79
2023/01/05 19:12:19;;;;;;;44.65;19.48;;;;;;;;;;10467057;28;20032;-78
2023/01/05 19:17:23;;;;;;;58.58;22.00;;;;;;;;;;10485025;28;20334;-76
2023/01/05 19:22:23;;;;;;;55.58;21.30;;;;;;;;;;10461077;28;20499;-77
2023/01/05 19:27:23;;;;;;;46.23;20.63;;;;;;;;;;10471797;28;20357;-77
2023/01/05 19:32:24;;;;;;;43.60;20.48;;;;;;;;;;10467691;28;20028;-77
2023/01/05 19:37:24;;;;;;;41.23;18.67;;;;;;;;;;10466049;28;20028;-76
2023/01/05 19:42:24;;;;;;;42.97;19.13;;;;;;;;;;10466019;28;20339;-75
2023/01/05 19:47:25;;;;;;;47.85;21.20;;;;;;;;;;10465806;28;20024;-75
2023/01/05 19:52:28;;;;;;;41.53;17.90;;;;;;;;;;10481540;28;20025;-76
2023/01/05 19:57:28;;;;;;;41.83;18.55;;;;;;;;;;10465368;28;20030;-73
2023/01/05 20:02:29;;;;;;;41.10;19.65;;;;;;;;;;10464815;28;20461;-76
2023/01/05 20:07:29;;;;;;;46.80;21.08;;;;;;;;;;10467659;28;20293;-75
2023/01/05 20:12:29;;;;;;;50.40;20.23;;;;;;;;;;10464605;28;20048;-74
2023/01/05 20:17:30;;;;;;;54.40;21.50;;;;;;;;;;10464592;28;20020;-72
2023/01/05 20:22:31;;;;;;;51.22;22.30;;;;;;;;;;10463566;28;20051;-74
2023/01/05 20:27:31;;;;;;;47.38;20.38;;;;;;;;;;10463998;28;20417;-73
2023/01/05 20:32:33;;;;;;;38.70;16.10;;;;;;;;;;10446807;28;20522;-71
2023/01/05 20:37:33;;;;;;;36.40;16.60;;;;;;;;;;10481353;28;20035;-75
2023/01/05 20:42:34;;;;;;;32.60;16.33;;;;;;;;;;10467686;28;20032;-76
2023/01/05 20:47:34;;;;;;;39.22;16.20;;;;;;;;;;10462016;28;20567;-74
2023/01/05 20:52:35;;;;;;;36.80;15.98;;;;;;;;;;10462642;28;20025;-75
2023/01/05 20:57:35;;;;;;;36.40;15.13;;;;;;;;;;10467813;28;20551;-73
2023/01/05 21:02:35;;;;;;;35.05;14.95;;;;;;;;;;10462797;28;20489;-76
2023/01/05 21:07:35;;;;;;;43.55;16.85;;;;;;;;;;10464278;28;20505;-73
2023/01/05 21:12:36;;;;;;;35.33;16.20;;;;;;;;;;10458600;28;20544;-72
2023/01/05 21:17:36;;;;;;;34.05;15.45;;;;;;;;;;10469540;28;20055;-77
2023/01/05 21:22:36;;;;;;;39.95;15.55;;;;;;;;;;10462350;28;20041;-75
2023/01/05 21:27:37;;;;;;;36.40;17.40;;;;;;;;;;10464104;28;20403;-76
2023/01/05 21:32:37;;;;;;;39.38;15.30;;;;;;;;;;10464145;28;20399;-72
2023/01/05 21:37:37;;;;;;;32.65;14.00;;;;;;;;;;10462161;28;20524;-75
2023/01/05 21:42:43;;;;;;;37.80;17.10;;;;;;;;;;10464116;28;20083;-74
2023/01/05 21:47:43;;;;;;;29.35;15.48;;;;;;;;;;10468441;28;20564;-76
2023/01/05 21:58:03;;;;;;;34.28;15.20;;;;;;;;;;10488162;28;20099;-74
2023/01/05 22:03:03;;;;;;;35.30;14.82;;;;;;;;;;10469775;28;20021;-77
2023/01/05 22:08:04;;;;;;;34.40;15.95;;;;;;;;;;10460329;28;20017;-76
2023/01/05 22:13:05;;;;;;;37.92;15.23;;;;;;;;;;10462360;28;20409;-75
2023/01/05 22:18:05;;;;;;;30.17;14.20;;;;;;;;;;10486502;28;20017;-74
2023/01/05 22:23:05;;;;;;;28.02;11.60;;;;;;;;;;10470490;28;20101;-74
2023/01/05 22:28:05;;;;;;;26.08;11.77;;;;;;;;;;10488308;28;20025;-76
2023/01/05 22:33:06;;;;;;;26.52;11.02;;;;;;;;;;10469146;28;20086;-76
2023/01/05 22:38:06;;;;;;;26.95;11.73;;;;;;;;;;10469587;28;20025;-76
2023/01/05 22:43:06;;;;;;;25.13;10.95;;;;;;;;;;10470043;28;20028;-79
2023/01/05 22:48:06;;;;;;;27.45;11.73;;;;;;;;;;10461334;28;20407;-76
2023/01/05 22:53:07;;;;;;;24.83;11.77;;;;;;;;;;10445263;28;20445;-76
2023/01/05 22:58:07;;;;;;;23.77;11.10;;;;;;;;;;10444746;28;20030;-75
2023/01/05 23:03:08;;;;;;;27.27;11.65;;;;;;;;;;10436201;28;20025;-72
2023/01/05 23:08:08;;;;;;;33.80;12.77;;;;;;;;;;10454737;28;20025;-78
2023/01/05 23:13:08;;;;;;;23.45;11.07;;;;;;;;;;10448063;28;20031;-71
2023/01/05 23:18:08;;;;;;;27.65;12.55;;;;;;;;;;10469999;28;20020;-72
2023/01/05 23:23:09;;;;;;;32.92;13.40;;;;;;;;;;10487561;28;20097;-74
2023/01/05 23:28:09;;;;;;;28.05;11.23;;;;;;;;;;10469653;28;20036;-76
2023/01/05 23:33:09;;;;;;;24.25;10.40;;;;;;;;;;10453889;28;20040;-74
2023/01/05 23:38:10;;;;;;;21.00;9.88;;;;;;;;;;10481533;28;20031;-78
2023/01/05 23:43:10;;;;;;;18.35;9.45;;;;;;;;;;10468267;28;20025;-77
2023/01/05 23:48:11;;;;;;;23.35;10.40;;;;;;;;;;10468786;28;20020;-73
2023/01/05 23:53:12;;;;;;;28.73;11.43;;;;;;;;;;10468311;28;20084;-72
2023/01/05 23:58:12;;;;;;;22.67;11.57;;;;;;;;;;10486103;28;20116;-74
